createdAt,value
2018-10-07T00:00:27.783Z,19.53
2018-10-07T00:01:05.649Z,19.47
2018-10-07T00:01:44.405Z,19.97
2018-10-07T00:02:22.506Z,19.70
2018-10-07T00:03:00.375Z,19.30
2018-10-07T00:03:38.410Z,19.77
2018-10-07T00:04:17.300Z,18.50
2018-10-07T00:04:56.380Z,20.93
2018-10-07T00:05:36.717Z,20.97
2018-10-07T00:06:14.592Z,20.97
2018-10-07T00:06:52.729Z,20.50
2018-10-07T00:07:33.356Z,20.07
2018-10-07T00:08:12.251Z,19.10
2018-10-07T00:08:50.133Z,19.27
2018-10-07T00:09:28.119Z,17.17
2018-10-07T00:10:06.093Z,19.80
2018-10-07T00:10:43.994Z,19.97
2018-10-07T00:11:22.160Z,20.30
2018-10-07T00:12:00.210Z,20.10
2018-10-07T00:12:38.190Z,20.77
2018-10-07T00:13:16.289Z,19.63
2018-10-07T00:13:54.297Z,19.70
2018-10-07T00:14:32.110Z,21.27
2018-10-07T00:15:10.241Z,19.97
2018-10-07T00:15:48.110Z,19.27
2018-10-07T00:16:26.091Z,19.80
2018-10-07T00:17:03.921Z,20.13
2018-10-07T00:17:41.796Z,20.93
2018-10-07T00:18:19.680Z,19.70
2018-10-07T00:18:58.394Z,21.43
2018-10-07T00:19:36.251Z,19.97
2018-10-07T00:20:15.200Z,19.70
2018-10-07T00:20:53.395Z,21.00
2018-10-07T00:21:32.136Z,19.80
2018-10-07T00:22:10.245Z,20.20
2018-10-07T00:22:48.423Z,19.93
2018-10-07T00:23:27.886Z,20.20
2018-10-07T00:24:06.096Z,20.27
2018-10-07T00:24:43.929Z,19.37
2018-10-07T00:25:22.031Z,21.53
2018-10-07T00:26:01.024Z,20.63
2018-10-07T00:26:40.182Z,20.43
2018-10-07T00:27:18.827Z,21.90
2018-10-07T00:27:57.833Z,21.60
2018-10-07T00:28:35.793Z,20.27
2018-10-07T00:29:13.984Z,19.57
2018-10-07T00:29:51.933Z,20.23
2018-10-07T00:30:29.867Z,18.77
2018-10-07T00:31:07.849Z,20.37
2018-10-07T00:31:49.890Z,20.93
2018-10-07T00:32:27.711Z,20.60
2018-10-07T00:33:06.199Z,19.73
2018-10-07T00:33:44.256Z,20.83
2018-10-07T00:34:22.280Z,22.43
2018-10-07T00:35:00.164Z,19.93
2018-10-07T00:35:38.167Z,21.20
2018-10-07T00:36:16.261Z,21.10
2018-10-07T00:36:54.154Z,20.20
2018-10-07T00:37:33.272Z,20.37
2018-10-07T00:38:11.409Z,19.00
2018-10-07T00:38:49.432Z,21.00
2018-10-07T00:39:27.301Z,22.10
2018-10-07T00:40:05.122Z,20.50
2018-10-07T00:40:43.468Z,20.33
2018-10-07T00:41:23.664Z,21.07
2018-10-07T00:42:03.864Z,20.97
2018-10-07T00:42:41.695Z,20.77
2018-10-07T00:43:19.657Z,19.60
2018-10-07T00:43:57.488Z,20.80
2018-10-07T00:44:35.450Z,19.47
2018-10-07T00:45:13.257Z,19.67
2018-10-07T00:45:51.217Z,17.63
2018-10-07T00:46:29.149Z,17.90
2018-10-07T00:47:07.034Z,18.90
2018-10-07T00:47:45.924Z,17.23
2018-10-07T00:48:23.809Z,17.70
2018-10-07T00:49:01.698Z,17.97
2018-10-07T00:49:40.519Z,16.10
2018-10-07T00:50:18.375Z,15.83
2018-10-07T00:50:56.395Z,15.57
2018-10-07T00:51:34.212Z,16.47
2018-10-07T00:52:12.282Z,16.33
2018-10-07T00:52:50.185Z,16.43
2018-10-07T00:53:28.054Z,15.43
2018-10-07T00:54:06.426Z,15.57
2018-10-07T00:54:44.427Z,15.80
2018-10-07T00:55:23.365Z,17.20
2018-10-07T00:56:03.689Z,16.50
2018-10-07T00:56:42.896Z,15.97
2018-10-07T00:57:20.855Z,17.50
2018-10-07T00:57:58.698Z,16.33
2018-10-07T00:58:36.606Z,15.63
2018-10-07T00:59:14.421Z,15.27
2018-10-07T00:59:52.417Z,16.97
2018-10-07T01:00:30.358Z,15.53
2018-10-07T01:01:08.121Z,15.80
2018-10-07T01:01:45.941Z,15.00
2018-10-07T01:02:24.800Z,15.20
2018-10-07T01:03:02.856Z,16.10
2018-10-07T01:03:40.697Z,16.00
2018-10-07T01:04:18.608Z,15.20
2018-10-07T01:04:56.392Z,14.97
2018-10-07T01:05:34.249Z,15.40
2018-10-07T01:06:12.110Z,14.17
2018-10-07T01:06:50.170Z,14.90
2018-10-07T01:07:29.053Z,16.10
2018-10-07T01:08:06.933Z,14.53
2018-10-07T01:08:44.768Z,13.90
2018-10-07T01:09:23.260Z,14.53
2018-10-07T01:10:03.431Z,12.70
2018-10-07T01:10:43.925Z,13.87
2018-10-07T01:11:24.152Z,13.70
2018-10-07T01:12:02.994Z,14.00
2018-10-07T01:12:41.684Z,14.73
2018-10-07T01:13:21.274Z,13.23
2018-10-07T01:13:59.208Z,14.93
2018-10-07T01:14:37.141Z,14.23
2018-10-07T01:15:15.498Z,15.70
2018-10-07T01:15:53.552Z,15.13
2018-10-07T01:16:31.458Z,13.83
2018-10-07T01:17:10.118Z,14.33
2018-10-07T01:17:47.983Z,14.20
2018-10-07T01:18:25.897Z,13.40
2018-10-07T01:19:03.763Z,15.30
2018-10-07T01:19:41.837Z,13.30
2018-10-07T01:20:19.954Z,13.70
2018-10-07T01:20:57.923Z,12.60
2018-10-07T01:21:35.800Z,14.47
2018-10-07T01:22:13.788Z,15.00
2018-10-07T01:22:51.677Z,14.60
2018-10-07T01:23:29.596Z,13.43
2018-10-07T01:24:08.396Z,13.40
2018-10-07T01:24:46.329Z,13.77
2018-10-07T01:25:24.363Z,13.77
2018-10-07T01:26:03.156Z,13.63
2018-10-07T01:26:41.020Z,14.03
2018-10-07T01:27:19.800Z,13.90
2018-10-07T01:27:57.848Z,13.13
2018-10-07T01:28:35.741Z,11.73
2018-10-07T01:29:13.722Z,14.10
2018-10-07T01:29:51.627Z,12.20
2018-10-07T01:30:30.611Z,11.93
2018-10-07T01:31:08.655Z,12.27
2018-10-07T01:31:46.505Z,11.13
2018-10-07T01:32:24.393Z,11.60
2018-10-07T01:33:02.284Z,11.63
2018-10-07T01:33:40.497Z,11.97
2018-10-07T01:34:18.468Z,11.37
2018-10-07T01:34:56.437Z,12.90
2018-10-07T01:35:34.509Z,11.90
2018-10-07T01:36:13.264Z,12.90
2018-10-07T01:36:51.122Z,12.03
2018-10-07T01:37:29.150Z,11.63
2018-10-07T01:38:06.993Z,11.87
2018-10-07T01:38:45.026Z,12.33
2018-10-07T01:39:22.913Z,12.40
2018-10-07T01:40:01.201Z,11.47
2018-10-07T01:40:39.099Z,11.60
2018-10-07T01:41:17.092Z,11.67
2018-10-07T01:41:55.229Z,12.40
2018-10-07T01:42:33.393Z,13.73
2018-10-07T01:43:11.375Z,16.13
2018-10-07T01:43:49.577Z,15.90
2018-10-07T01:44:27.910Z,16.77
2018-10-07T01:45:05.897Z,16.40
2018-10-07T01:45:43.761Z,16.20
2018-10-07T01:46:22.580Z,16.20
2018-10-07T01:47:00.406Z,16.00
2018-10-07T01:47:38.301Z,16.10
2018-10-07T01:48:16.718Z,15.18
2018-10-07T01:48:54.876Z,15.20
2018-10-07T01:49:32.846Z,13.20
2018-10-07T01:50:11.081Z,14.30
2018-10-07T01:50:49.075Z,13.30
2018-10-07T01:51:28.045Z,13.87
2018-10-07T01:52:05.891Z,13.73
2018-10-07T01:52:43.692Z,15.07
2018-10-07T01:53:21.508Z,15.00
2018-10-07T01:54:00.191Z,15.63
2018-10-07T01:54:38.102Z,15.53
2018-10-07T01:55:16.055Z,14.57
2018-10-07T01:55:53.977Z,14.97
2018-10-07T01:56:31.941Z,15.00
2018-10-07T01:57:09.836Z,16.90
2018-10-07T01:57:47.827Z,15.40
2018-10-07T01:58:25.812Z,15.37
2018-10-07T01:59:03.700Z,16.60
2018-10-07T01:59:41.522Z,15.83
2018-10-07T02:00:19.378Z,16.10
2018-10-07T02:00:57.248Z,18.13
2018-10-07T02:01:35.048Z,17.53
2018-10-07T02:02:14.862Z,16.70
2018-10-07T02:03:06.551Z,17.37
2018-10-07T02:03:44.378Z,16.47
2018-10-07T02:04:22.177Z,17.07
2018-10-07T02:05:00.217Z,16.80
2018-10-07T02:05:39.489Z,17.50
2018-10-07T02:06:17.792Z,14.73
2018-10-07T02:06:56.419Z,13.20
2018-10-07T02:07:34.308Z,13.10
2018-10-07T02:08:12.233Z,12.67
2018-10-07T02:08:50.960Z,12.43
2018-10-07T02:09:28.876Z,11.93
2018-10-07T02:10:06.757Z,12.57
2018-10-07T02:10:44.638Z,11.80
2018-10-07T02:11:22.562Z,13.27
2018-10-07T02:12:00.415Z,11.20
2018-10-07T02:12:38.281Z,11.20
2018-10-07T02:13:16.187Z,11.37
2018-10-07T02:13:54.211Z,10.83
2018-10-07T02:14:32.149Z,10.50
2018-10-07T02:15:10.086Z,11.00
2018-10-07T02:15:47.928Z,13.60
2018-10-07T02:16:26.216Z,12.43
2018-10-07T02:17:04.162Z,11.27
2018-10-07T02:17:41.994Z,11.70
2018-10-07T02:18:19.796Z,11.27
2018-10-07T02:18:57.736Z,10.73
2018-10-07T02:19:35.644Z,11.47
2018-10-07T02:20:13.561Z,10.00
2018-10-07T02:20:51.547Z,10.57
2018-10-07T02:21:29.400Z,11.37
2018-10-07T02:22:07.330Z,9.20
2018-10-07T02:22:45.214Z,10.37
2018-10-07T02:23:23.143Z,9.83
2018-10-07T02:24:01.036Z,9.53
2018-10-07T02:24:38.925Z,9.43
2018-10-07T02:25:16.766Z,10.37
2018-10-07T02:25:55.633Z,10.03
2018-10-07T02:26:33.516Z,10.23
2018-10-07T02:27:11.447Z,8.80
2018-10-07T02:27:49.388Z,9.30
2018-10-07T02:28:27.286Z,9.03
2018-10-07T02:29:05.489Z,9.50
2018-10-07T02:29:43.426Z,9.97
2018-10-07T02:30:21.436Z,10.03
2018-10-07T02:30:59.474Z,10.70
2018-10-07T02:31:37.496Z,10.90
2018-10-07T02:32:15.371Z,10.50
2018-10-07T02:32:53.272Z,9.60
2018-10-07T02:33:31.178Z,10.30
2018-10-07T02:34:09.430Z,10.93
2018-10-07T02:34:47.215Z,9.50
2018-10-07T02:35:25.255Z,10.03
2018-10-07T02:36:03.205Z,9.60
2018-10-07T02:36:40.997Z,9.83
2018-10-07T02:37:18.825Z,9.10
2018-10-07T02:37:56.738Z,10.30
2018-10-07T02:38:34.800Z,9.63
2018-10-07T02:39:13.148Z,9.93
2018-10-07T02:39:51.140Z,9.47
2018-10-07T02:40:28.965Z,9.47
2018-10-07T02:41:07.022Z,9.10
2018-10-07T02:41:44.960Z,8.40
2018-10-07T02:42:22.986Z,9.17
2018-10-07T02:43:00.863Z,9.10
2018-10-07T02:43:38.878Z,10.00
2018-10-07T02:44:20.910Z,8.90
2018-10-07T02:44:58.892Z,8.70
2018-10-07T02:45:36.866Z,8.40
2018-10-07T02:46:15.029Z,8.87
2018-10-07T02:46:52.937Z,8.97
2018-10-07T02:47:31.085Z,8.43
2018-10-07T02:48:09.027Z,8.90
2018-10-07T02:48:46.904Z,7.73
2018-10-07T02:49:24.745Z,8.40
2018-10-07T02:50:02.685Z,8.93
2018-10-07T02:50:42.410Z,7.57
2018-10-07T02:51:20.499Z,8.20
2018-10-07T03:03:27.895Z,8.30
2018-10-07T03:04:06.711Z,8.60
2018-10-07T03:04:44.755Z,8.50
2018-10-07T03:05:22.712Z,8.73
2018-10-07T03:06:04.398Z,8.20
2018-10-07T03:06:42.462Z,9.23
2018-10-07T03:07:21.793Z,8.67
2018-10-07T03:08:01.152Z,8.17
2018-10-07T03:08:38.986Z,8.20
2018-10-07T03:09:16.882Z,8.63
2018-10-07T03:09:54.919Z,8.10
2018-10-07T03:10:32.878Z,8.50
2018-10-07T03:11:10.915Z,8.30
2018-10-07T03:11:48.945Z,8.10
2018-10-07T03:12:26.862Z,8.60
2018-10-07T03:13:04.999Z,8.47
2018-10-07T03:13:42.854Z,9.43
2018-10-07T03:14:20.707Z,8.90
2018-10-07T03:14:58.525Z,8.40
2018-10-07T03:15:36.483Z,8.90
2018-10-07T03:16:14.391Z,8.73
2018-10-07T03:16:53.385Z,9.40
2018-10-07T03:17:31.392Z,8.60
2018-10-07T03:18:09.703Z,8.50
2018-10-07T03:18:47.500Z,8.70
2018-10-07T03:19:25.312Z,8.70
2018-10-07T03:20:03.337Z,7.83
2018-10-07T03:20:41.262Z,8.90
2018-10-07T03:21:19.135Z,8.37
2018-10-07T03:21:58.046Z,8.93
2018-10-07T03:22:36.038Z,9.17
2018-10-07T03:23:13.976Z,9.27
2018-10-07T03:23:52.054Z,9.40
2018-10-07T03:24:29.939Z,9.10
2018-10-07T03:25:08.119Z,9.00
2018-10-07T03:25:45.983Z,10.57
2018-10-07T03:26:23.969Z,9.70
2018-10-07T03:27:01.883Z,10.10
2018-10-07T03:27:39.841Z,10.23
2018-10-07T03:28:17.951Z,10.10
2018-10-07T03:28:55.951Z,10.17
2018-10-07T03:29:33.949Z,9.23
2018-10-07T03:30:12.245Z,9.27
2018-10-07T03:30:53.527Z,9.97
2018-10-07T03:31:31.416Z,10.43
2018-10-07T03:32:09.763Z,10.27
2018-10-07T03:32:47.949Z,10.20
2018-10-07T03:33:26.006Z,9.60
2018-10-07T03:34:04.065Z,10.30
2018-10-07T03:34:41.933Z,10.30
2018-10-07T03:35:19.788Z,10.83
2018-10-07T03:35:57.720Z,10.30
2018-10-07T03:36:35.720Z,10.53
2018-10-07T03:37:13.655Z,9.50
2018-10-07T03:37:51.605Z,9.50
2018-10-07T03:38:29.871Z,10.10
2018-10-07T03:39:09.908Z,10.57
2018-10-07T03:39:47.899Z,9.80
2018-10-07T03:40:25.897Z,10.30
2018-10-07T03:41:03.860Z,11.00
2018-10-07T03:41:42.161Z,10.00
2018-10-07T03:42:20.057Z,10.90
2018-10-07T03:42:57.858Z,10.80
2018-10-07T03:43:40.682Z,11.70
2018-10-07T03:44:19.841Z,11.50
2018-10-07T03:44:57.738Z,10.97
2018-10-07T03:45:35.845Z,10.90
2018-10-07T03:46:13.777Z,10.93
2018-10-07T03:46:53.879Z,9.60
2018-10-07T03:47:32.870Z,11.40
2018-10-07T03:48:10.728Z,10.53
2018-10-07T03:48:50.292Z,10.10
2018-10-07T03:49:28.215Z,9.43
2018-10-07T03:50:06.020Z,9.70
2018-10-07T03:50:43.795Z,10.53
2018-10-07T03:51:21.664Z,10.43
2018-10-07T03:52:01.078Z,10.43
2018-10-07T03:52:38.911Z,9.97
2018-10-07T03:53:16.809Z,10.70
2018-10-07T03:53:54.772Z,11.30
2018-10-07T03:54:33.270Z,10.93
2018-10-07T03:55:11.185Z,11.20
2018-10-07T03:55:49.126Z,12.60
2018-10-07T03:56:27.016Z,12.07
2018-10-07T03:57:04.900Z,13.13
2018-10-07T03:57:42.793Z,11.70
2018-10-07T03:58:20.839Z,11.80
2018-10-07T03:58:58.732Z,11.43
2018-10-07T03:59:36.677Z,12.60
2018-10-07T04:00:14.653Z,12.27
2018-10-07T04:00:52.674Z,11.83
2018-10-07T04:01:30.637Z,12.07
2018-10-07T04:02:08.606Z,10.80
2018-10-07T04:02:46.423Z,12.13
2018-10-07T04:03:24.529Z,12.40
2018-10-07T04:04:02.613Z,12.80
2018-10-07T04:04:40.519Z,14.57
2018-10-07T04:05:18.639Z,13.73
2018-10-07T04:05:57.473Z,14.60
2018-10-07T04:06:35.427Z,13.70
2018-10-07T04:07:13.394Z,13.73
2018-10-07T04:07:51.261Z,13.30
2018-10-07T04:08:29.177Z,12.63
2018-10-07T04:09:07.517Z,12.63
2018-10-07T04:09:45.420Z,12.10
2018-10-07T04:10:23.233Z,12.30
2018-10-07T04:11:01.047Z,11.57
2018-10-07T04:11:38.888Z,12.33
2018-10-07T04:12:16.917Z,11.03
2018-10-07T04:12:54.712Z,11.00
2018-10-07T04:13:32.606Z,11.40
2018-10-07T04:14:10.638Z,12.43
2018-10-07T04:14:48.646Z,11.23
2018-10-07T04:15:26.815Z,12.53
2018-10-07T04:16:05.208Z,13.03
2018-10-07T04:16:43.049Z,11.87
2018-10-07T04:17:21.028Z,12.97
2018-10-07T04:17:58.921Z,10.63
2018-10-07T04:18:36.953Z,12.60
2018-10-07T04:19:15.193Z,11.53
2018-10-07T04:19:53.045Z,11.43
2018-10-07T04:20:31.905Z,11.30
2018-10-07T04:21:10.724Z,11.43
2018-10-07T04:21:54.736Z,10.80
2018-10-07T04:22:32.881Z,11.70
2018-10-07T04:23:10.935Z,11.00
2018-10-07T04:23:48.840Z,11.40
2018-10-07T04:24:28.092Z,10.97
2018-10-07T04:25:06.063Z,11.27
2018-10-07T04:25:43.920Z,11.20
2018-10-07T04:26:21.783Z,11.83
2018-10-07T04:26:59.812Z,11.07
2018-10-07T04:27:37.665Z,12.60
2018-10-07T04:28:15.505Z,11.60
2018-10-07T04:28:53.597Z,12.10
2018-10-07T04:29:31.460Z,13.50
2018-10-07T04:30:10.723Z,12.70
2018-10-07T04:30:48.631Z,13.77
2018-10-07T04:31:26.598Z,12.60
2018-10-07T04:32:04.497Z,13.17
2018-10-07T04:32:42.447Z,13.47
2018-10-07T04:33:20.276Z,14.27
2018-10-07T04:33:58.213Z,13.27
2018-10-07T04:34:36.063Z,13.53
2018-10-07T04:35:13.901Z,13.20
2018-10-07T04:35:51.741Z,13.10
2018-10-07T04:36:29.625Z,13.43
2018-10-07T04:37:07.564Z,12.70
2018-10-07T04:37:45.337Z,12.80
2018-10-07T04:38:23.332Z,13.30
2018-10-07T04:39:01.263Z,13.20
2018-10-07T04:39:39.304Z,12.60
2018-10-07T04:40:17.281Z,13.20
2018-10-07T04:40:55.773Z,12.50
2018-10-07T04:41:33.570Z,11.87
2018-10-07T04:42:11.496Z,11.47
2018-10-07T04:42:49.412Z,12.00
2018-10-07T04:43:27.554Z,12.37
2018-10-07T04:44:05.502Z,10.70
2018-10-07T04:44:43.443Z,10.47
2018-10-07T04:45:22.370Z,10.10
2018-10-07T04:46:00.292Z,11.60
2018-10-07T04:46:38.216Z,10.10
2018-10-07T04:47:16.120Z,11.03
2018-10-07T04:47:54.049Z,10.57
2018-10-07T04:48:34.570Z,11.90
2018-10-07T04:49:12.405Z,10.60
2018-10-07T04:49:50.432Z,11.00
2018-10-07T04:50:28.479Z,11.47
2018-10-07T04:51:06.516Z,11.50
2018-10-07T04:51:44.313Z,11.90
2018-10-07T04:52:22.200Z,11.70
2018-10-07T04:53:00.094Z,12.70
2018-10-07T04:53:38.024Z,12.20
2018-10-07T04:54:16.413Z,12.35
2018-10-07T04:54:54.286Z,12.80
2018-10-07T04:55:33.102Z,11.10
2018-10-07T04:56:10.979Z,11.53
2018-10-07T04:56:48.891Z,13.27
2018-10-07T04:57:26.799Z,12.60
2018-10-07T04:58:04.659Z,11.53
2018-10-07T04:58:42.592Z,12.87
2018-10-07T04:59:20.524Z,13.23
2018-10-07T04:59:59.197Z,13.63
2018-10-07T05:00:37.341Z,13.77
2018-10-07T05:01:15.313Z,12.70
2018-10-07T05:01:53.273Z,12.80
2018-10-07T05:02:31.185Z,12.47
2018-10-07T05:03:09.009Z,13.30
2018-10-07T05:03:46.915Z,12.20
2018-10-07T05:04:24.784Z,12.43
2018-10-07T05:05:02.706Z,12.50
2018-10-07T05:05:41.796Z,12.83
2018-10-07T05:06:20.116Z,12.50
2018-10-07T05:07:00.736Z,12.70
2018-10-07T05:07:38.607Z,13.33
2018-10-07T05:08:17.127Z,12.47
2018-10-07T05:08:56.721Z,12.40
2018-10-07T05:09:35.044Z,12.20
2018-10-07T05:10:25.485Z,11.87
2018-10-07T05:11:05.218Z,11.80
2018-10-07T05:11:44.398Z,12.10
2018-10-07T05:12:23.019Z,11.30
2018-10-07T05:13:01.519Z,11.87
2018-10-07T05:13:55.643Z,12.67
2018-10-07T05:14:33.781Z,12.20
2018-10-07T05:15:11.922Z,11.70
2018-10-07T05:15:51.896Z,12.30
2018-10-07T05:16:40.644Z,10.47
2018-10-07T05:17:19.922Z,12.83
2018-10-07T05:17:58.331Z,11.90
2018-10-07T05:18:37.426Z,11.40
2018-10-07T05:19:15.647Z,12.00
2018-10-07T05:19:53.543Z,11.70
2018-10-07T05:20:31.410Z,11.63
2018-10-07T05:21:09.620Z,11.43
2018-10-07T05:21:47.587Z,11.57
2018-10-07T05:22:25.446Z,12.10
2018-10-07T05:23:03.477Z,11.80
2018-10-07T05:23:41.396Z,10.87
2018-10-07T05:24:19.197Z,11.20
2018-10-07T05:24:57.531Z,12.90
2018-10-07T05:25:35.428Z,10.97
2018-10-07T05:26:13.380Z,12.20
2018-10-07T05:26:51.414Z,11.60
2018-10-07T05:27:29.468Z,11.23
2018-10-07T05:28:07.374Z,10.90
2018-10-07T05:28:45.254Z,11.67
2018-10-07T05:29:23.151Z,12.27
2018-10-07T05:30:00.909Z,13.03
2018-10-07T05:30:38.754Z,11.73
2018-10-07T05:31:16.601Z,11.33
2018-10-07T05:31:54.581Z,11.77
2018-10-07T05:32:32.519Z,12.27
2018-10-07T05:33:10.415Z,12.70
2018-10-07T05:33:49.080Z,11.90
2018-10-07T05:34:27.524Z,11.70
2018-10-07T05:35:05.404Z,12.60
2018-10-07T05:35:43.336Z,12.90
2018-10-07T05:36:21.264Z,12.80
2018-10-07T05:36:59.078Z,12.73
2018-10-07T05:37:36.897Z,12.93
2018-10-07T05:38:14.900Z,12.40
2018-10-07T05:38:52.793Z,13.10
2018-10-07T05:39:30.693Z,13.07
2018-10-07T05:40:08.475Z,12.93
2018-10-07T05:40:46.468Z,11.97
2018-10-07T05:41:24.422Z,12.40
2018-10-07T05:42:02.230Z,14.10
2018-10-07T05:42:40.128Z,13.20
2018-10-07T05:43:18.009Z,13.30
2018-10-07T05:43:55.995Z,12.87
2018-10-07T05:44:33.871Z,12.80
2018-10-07T05:45:12.048Z,12.83
2018-10-07T05:45:50.054Z,14.23
2018-10-07T05:46:27.905Z,12.97
2018-10-07T05:47:06.637Z,13.43
2018-10-07T05:47:44.465Z,14.07
2018-10-07T05:48:23.345Z,12.97
2018-10-07T05:49:01.132Z,14.30
2018-10-07T05:49:39.135Z,14.23
2018-10-07T05:50:17.216Z,13.30
2018-10-07T05:50:56.142Z,14.87
2018-10-07T05:51:33.996Z,14.33
2018-10-07T05:52:11.855Z,14.97
2018-10-07T05:52:49.675Z,14.93
2018-10-07T05:53:27.599Z,14.87
2018-10-07T05:54:05.530Z,15.40
2018-10-07T05:54:43.733Z,13.70
2018-10-07T05:55:21.913Z,15.03
2018-10-07T05:56:00.783Z,14.97
2018-10-07T05:56:38.684Z,14.80
2018-10-07T05:57:16.676Z,15.20
2018-10-07T05:57:58.335Z,15.20
2018-10-07T05:58:37.385Z,15.13
2018-10-07T05:59:15.578Z,15.10
2018-10-07T05:59:53.751Z,15.03
2018-10-07T06:00:34.532Z,15.70
2018-10-07T06:01:17.249Z,14.60
2018-10-07T06:01:56.899Z,15.43
2018-10-07T06:02:35.270Z,15.77
2018-10-07T06:04:32.988Z,16.23
2018-10-07T06:05:10.892Z,15.43
2018-10-07T06:05:49.956Z,15.40
2018-10-07T06:06:27.875Z,16.17
2018-10-07T06:07:06.822Z,15.27
2018-10-07T06:07:45.213Z,14.87
2018-10-07T06:08:24.333Z,15.50
2018-10-07T06:09:02.276Z,14.53
2018-10-07T06:09:41.314Z,15.37
2018-10-07T06:10:19.215Z,17.20
2018-10-07T06:10:56.974Z,15.37
2018-10-07T06:11:34.956Z,16.47
2018-10-07T06:12:12.927Z,16.20
2018-10-07T06:12:51.547Z,16.17
2018-10-07T06:13:29.429Z,16.40
2018-10-07T06:14:07.463Z,17.20
2018-10-07T06:14:54.352Z,15.23
2018-10-07T06:15:36.785Z,15.80
2018-10-07T06:16:14.566Z,15.03
2018-10-07T06:16:52.411Z,16.43
2018-10-07T06:17:33.145Z,15.43
2018-10-07T06:18:11.469Z,15.77
2018-10-07T06:18:49.284Z,16.30
2018-10-07T06:19:27.281Z,15.67
2018-10-07T06:20:05.188Z,16.70
2018-10-07T06:20:43.247Z,16.10
2018-10-07T06:21:21.160Z,16.00
2018-10-07T06:22:00.034Z,16.07
2018-10-07T06:23:41.408Z,15.23
2018-10-07T06:24:19.298Z,15.80
2018-10-07T06:24:57.231Z,15.67
2018-10-07T06:25:35.180Z,14.83
2018-10-07T06:26:13.097Z,16.53
2018-10-07T06:26:52.051Z,16.10
2018-10-07T06:27:29.951Z,14.90
2018-10-07T06:28:07.750Z,15.83
2018-10-07T06:28:45.963Z,14.23
2018-10-07T06:29:23.988Z,15.80
2018-10-07T06:30:01.976Z,15.70
2018-10-07T06:30:39.987Z,14.67
2018-10-07T06:31:17.944Z,13.17
2018-10-07T06:31:56.905Z,14.90
2018-10-07T06:32:34.771Z,14.00
2018-10-07T06:33:12.605Z,14.30
2018-10-07T06:33:50.453Z,14.90
2018-10-07T06:34:28.351Z,14.37
2018-10-07T06:35:06.190Z,15.00
2018-10-07T06:35:44.026Z,14.17
2018-10-07T06:36:21.942Z,15.07
2018-10-07T06:37:01.149Z,13.63
2018-10-07T06:37:39.037Z,13.97
2018-10-07T06:38:17.866Z,15.33
2018-10-07T06:38:55.724Z,14.70
2018-10-07T06:39:33.566Z,14.17
2018-10-07T06:40:11.905Z,14.40
2018-10-07T06:40:49.753Z,14.60
2018-10-07T06:41:30.321Z,13.63
2018-10-07T06:42:08.175Z,13.13
2018-10-07T06:42:46.064Z,12.93
2018-10-07T06:43:23.995Z,12.87
2018-10-07T06:44:01.842Z,13.83
2018-10-07T06:44:39.876Z,13.70
2018-10-07T06:45:17.731Z,13.00
2018-10-07T06:45:56.470Z,13.90
2018-10-07T06:46:34.336Z,13.07
2018-10-07T06:47:12.248Z,13.87
2018-10-07T06:47:50.144Z,13.07
2018-10-07T06:48:27.933Z,12.57
2018-10-07T06:49:05.849Z,13.80
2018-10-07T06:49:43.681Z,13.17
2018-10-07T06:50:21.588Z,13.47
2018-10-07T06:50:59.459Z,14.23
2018-10-07T06:51:37.741Z,12.43
2018-10-07T06:52:15.529Z,11.93
2018-10-07T06:52:54.190Z,12.60
2018-10-07T06:53:32.081Z,13.97
2018-10-07T06:54:09.940Z,12.93
2018-10-07T06:54:47.961Z,12.57
2018-10-07T06:55:25.920Z,13.73
2018-10-07T06:56:03.758Z,13.90
2018-10-07T06:56:41.835Z,13.50
2018-10-07T06:57:19.818Z,12.83
2018-10-07T06:57:57.688Z,14.03
2018-10-07T06:58:35.520Z,13.97
2018-10-07T06:59:13.336Z,14.20
2018-10-07T06:59:51.380Z,13.10
2018-10-07T07:00:29.384Z,13.37
2018-10-07T07:01:07.417Z,12.33
2018-10-07T07:01:45.450Z,13.77
2018-10-07T07:02:23.546Z,13.37
2018-10-07T07:03:01.511Z,14.07
2018-10-07T07:03:39.417Z,13.00
2018-10-07T07:04:17.316Z,14.00
2018-10-07T07:04:55.497Z,14.10
2018-10-07T07:05:33.420Z,14.07
2018-10-07T07:06:11.369Z,14.20
2018-10-07T07:06:50.197Z,13.47
2018-10-07T07:07:28.510Z,14.73
2018-10-07T07:08:06.359Z,13.73
2018-10-07T07:08:44.408Z,13.73
2018-10-07T07:09:22.267Z,13.53
2018-10-07T07:10:00.152Z,14.27
2018-10-07T07:10:38.032Z,13.80
2018-10-07T07:11:15.940Z,14.27
2018-10-07T07:11:54.904Z,13.67
2018-10-07T07:12:32.998Z,14.10
2018-10-07T07:13:12.079Z,13.20
2018-10-07T07:13:50.773Z,13.50
2018-10-07T07:14:28.608Z,13.13
2018-10-07T07:15:06.647Z,13.50
2018-10-07T07:15:45.494Z,13.93
2018-10-07T07:16:23.412Z,14.07
2018-10-07T07:17:01.336Z,13.23
2018-10-07T07:17:39.428Z,13.30
2018-10-07T07:18:17.311Z,13.03
2018-10-07T07:18:55.340Z,13.73
2018-10-07T07:19:33.292Z,13.30
2018-10-07T07:20:11.234Z,13.73
2018-10-07T07:20:49.223Z,13.50
2018-10-07T07:21:27.157Z,14.30
2018-10-07T07:22:04.965Z,13.43
2018-10-07T07:22:42.832Z,14.47
2018-10-07T07:23:20.652Z,14.40
2018-10-07T07:23:59.391Z,13.97
2018-10-07T07:24:37.235Z,13.20
2018-10-07T07:25:15.067Z,13.53
2018-10-07T07:25:52.925Z,13.50
2018-10-07T07:26:30.703Z,13.43
2018-10-07T07:27:08.776Z,13.83
2018-10-07T07:27:46.601Z,14.60
2018-10-07T07:28:25.500Z,13.43
2018-10-07T07:29:03.329Z,14.40
2018-10-07T07:29:41.295Z,14.10
2018-10-07T07:30:19.074Z,13.13
2018-10-07T07:30:57.926Z,13.63
2018-10-07T07:31:35.850Z,13.90
2018-10-07T07:32:13.665Z,14.27
2018-10-07T07:32:51.538Z,15.20
2018-10-07T07:33:29.405Z,14.50
2018-10-07T07:34:07.373Z,13.23
2018-10-07T07:34:46.221Z,14.10
2018-10-07T07:35:24.841Z,14.73
2018-10-07T07:36:02.665Z,14.13
2018-10-07T07:36:40.491Z,15.50
2018-10-07T07:37:18.333Z,14.10
2018-10-07T07:37:56.257Z,14.17
2018-10-07T07:38:34.408Z,13.70
2018-10-07T07:39:12.359Z,13.70
2018-10-07T07:39:50.454Z,14.73
2018-10-07T07:40:28.281Z,13.70
2018-10-07T07:41:06.157Z,13.80
2018-10-07T07:41:43.996Z,13.87
2018-10-07T07:42:21.916Z,14.80
2018-10-07T07:42:59.869Z,14.80
2018-10-07T07:43:37.747Z,14.33
2018-10-07T07:47:16.617Z,13.20
2018-10-07T07:47:54.792Z,13.70
2018-10-07T07:48:32.568Z,14.00
2018-10-07T07:49:10.567Z,13.73
2018-10-07T07:49:48.626Z,13.30
2018-10-07T07:50:26.528Z,14.30
2018-10-07T07:51:05.247Z,14.20
2018-10-07T07:51:43.244Z,14.17
2018-10-07T07:52:21.183Z,13.20
2018-10-07T07:52:59.219Z,13.90
2018-10-07T07:53:37.401Z,14.43
2018-10-07T07:54:15.192Z,13.00
2018-10-07T07:54:54.286Z,13.17
2018-10-07T07:55:32.249Z,13.80
2018-10-07T07:56:10.291Z,14.87
2018-10-07T07:56:48.056Z,15.10
2018-10-07T07:57:25.935Z,14.10
2018-10-07T07:58:03.821Z,13.80
2018-10-07T07:58:41.709Z,14.37
2018-10-07T07:59:19.630Z,14.00
2018-10-07T07:59:57.569Z,13.60
2018-10-07T08:00:35.494Z,14.80
2018-10-07T08:01:13.592Z,14.30
2018-10-07T08:01:51.513Z,13.67
2018-10-07T08:02:29.544Z,15.10
2018-10-07T08:03:07.674Z,14.37
2018-10-07T08:03:45.708Z,14.07
2018-10-07T08:04:23.727Z,14.70
2018-10-07T08:05:01.948Z,14.23
2018-10-07T08:05:40.413Z,13.67
2018-10-07T08:06:18.516Z,13.20
2018-10-07T08:06:56.574Z,14.53
2018-10-07T08:07:34.740Z,13.97
2018-10-07T08:08:13.144Z,16.00
2018-10-07T08:08:51.430Z,14.13
2018-10-07T08:09:29.377Z,14.83
2018-10-07T08:10:08.113Z,14.50
2018-10-07T08:10:45.981Z,14.30
2018-10-07T08:11:23.837Z,16.90
2018-10-07T08:12:01.838Z,14.90
2018-10-07T08:12:41.058Z,14.80
2018-10-07T08:13:19.844Z,14.27
2018-10-07T08:13:57.750Z,15.57
2018-10-07T08:14:35.658Z,14.40
2018-10-07T08:15:13.539Z,14.87
2018-10-07T08:15:51.431Z,14.97
2018-10-07T08:16:29.242Z,14.20
2018-10-07T08:17:07.137Z,15.80
2018-10-07T08:17:45.037Z,14.77
2018-10-07T08:18:23.008Z,15.47
2018-10-07T08:19:00.889Z,15.63
2018-10-07T08:19:38.765Z,15.63
2018-10-07T08:20:16.907Z,14.58
2018-10-07T08:20:54.809Z,13.93
2018-10-07T08:21:32.737Z,14.07
2018-10-07T08:22:10.789Z,14.27
2018-10-07T08:22:48.721Z,16.43
2018-10-07T08:23:26.683Z,14.30
2018-10-07T08:24:04.607Z,15.43
2018-10-07T08:24:42.435Z,14.77
2018-10-07T08:25:20.948Z,15.77
2018-10-07T08:25:58.775Z,15.43
2018-10-07T08:26:36.649Z,15.80
2018-10-07T08:27:14.545Z,15.97
2018-10-07T08:27:53.192Z,16.23
2018-10-07T08:28:31.194Z,15.13
2018-10-07T08:29:09.141Z,15.50
2018-10-07T08:29:47.498Z,16.00
2018-10-07T08:30:25.496Z,15.20
2018-10-07T08:31:03.357Z,16.10
2018-10-07T08:31:41.286Z,16.03